sensor_id;sensor_type;location;lat;lon;timestamp;pressure;altitude;pressure_sealevel;temperature;humidity
9035;BME280;4552;43.422;24.592;2022-09-09T00:00:44;99841.84;;;20.39;77.45
9035;BME280;4552;43.422;24.592;2022-09-09T00:03:17;99836.63;;;20.53;77.52
9035;BME280;4552;43.422;24.592;2022-09-09T00:05:52;99835.00;;;20.50;77.64
9035;BME280;4552;43.422;24.592;2022-09-09T00:08:27;99835.00;;;20.35;79.12
9035;BME280;4552;43.422;24.592;2022-09-09T00:11:01;99839.41;;;20.19;80.81
9035;BME280;4552;43.422;24.592;2022-09-09T00:13:34;99842.78;;;20.22;80.38
9035;BME280;4552;43.422;24.592;2022-09-09T00:16:11;99836.97;;;19.99;82.41
9035;BME280;4552;43.422;24.592;2022-09-09T00:18:50;99836.59;;;19.89;82.78
9035;BME280;4552;43.422;24.592;2022-09-09T00:21:21;99845.19;;;19.94;83.04
9035;BME280;4552;43.422;24.592;2022-09-09T00:23:53;99832.06;;;19.91;82.38
9035;BME280;4552;43.422;24.592;2022-09-09T00:26:26;99845.28;;;20.08;82.05
9035;BME280;4552;43.422;24.592;2022-09-09T00:29:14;99840.22;;;20.04;83.69
9035;BME280;4552;43.422;24.592;2022-09-09T00:31:48;99842.63;;;19.76;85.22
9035;BME280;4552;43.422;24.592;2022-09-09T00:34:20;99815.22;;;19.41;87.75
9035;BME280;4552;43.422;24.592;2022-09-09T00:36:49;99839.31;;;19.88;85.90
9035;BME280;4552;43.422;24.592;2022-09-09T00:39:27;99841.13;;;19.87;85.71
9035;BME280;4552;43.422;24.592;2022-09-09T00:42:05;99840.81;;;19.76;86.06
9035;BME280;4552;43.422;24.592;2022-09-09T00:44:49;99834.28;;;19.66;87.13
9035;BME280;4552;43.422;24.592;2022-09-09T00:47:37;99834.38;;;19.48;88.20
9035;BME280;4552;43.422;24.592;2022-09-09T00:50:27;99817.41;;;19.50;88.09
9035;BME280;4552;43.422;24.592;2022-09-09T00:53:05;99808.75;;;19.30;89.94
9035;BME280;4552;43.422;24.592;2022-09-09T00:55:41;99809.16;;;19.39;89.66
9035;BME280;4552;43.422;24.592;2022-09-09T00:58:13;99812.72;;;19.38;90.30
9035;BME280;4552;43.422;24.592;2022-09-09T01:00:46;99798.22;;;19.45;89.79
9035;BME280;4552;43.422;24.592;2022-09-09T01:03:20;99805.16;;;19.65;89.10
9035;BME280;4552;43.422;24.592;2022-09-09T01:05:58;99802.19;;;19.54;89.25
9035;BME280;4552;43.422;24.592;2022-09-09T01:08:48;99789.31;;;19.46;89.84
9035;BME280;4552;43.422;24.592;2022-09-09T01:11:25;99798.97;;;19.64;88.46
9035;BME280;4552;43.422;24.592;2022-09-09T01:13:58;99798.22;;;19.78;87.65
9035;BME280;4552;43.422;24.592;2022-09-09T01:16:31;99782.66;;;19.87;86.87
9035;BME280;4552;43.422;24.592;2022-09-09T01:19:02;99791.41;;;19.89;86.55
9035;BME280;4552;43.422;24.592;2022-09-09T01:21:39;99781.06;;;20.00;85.86
9035;BME280;4552;43.422;24.592;2022-09-09T01:24:20;99786.50;;;20.14;84.06
9035;BME280;4552;43.422;24.592;2022-09-09T01:26:52;99764.91;;;20.20;82.05
9035;BME280;4552;43.422;24.592;2022-09-09T01:29:22;99791.94;;;20.44;80.17
9035;BME280;4552;43.422;24.592;2022-09-09T01:31:54;99793.56;;;20.46;79.99
9035;BME280;4552;43.422;24.592;2022-09-09T01:34:23;99791.59;;;20.50;79.77
9035;BME280;4552;43.422;24.592;2022-09-09T01:36:56;99791.31;;;20.54;80.38
9035;BME280;4552;43.422;24.592;2022-09-09T01:39:24;99798.38;;;20.40;82.15
9035;BME280;4552;43.422;24.592;2022-09-09T01:41:55;99788.66;;;20.39;82.68
9035;BME280;4552;43.422;24.592;2022-09-09T01:44:24;99786.44;;;20.31;82.87
9035;BME280;4552;43.422;24.592;2022-09-09T01:46:52;99774.22;;;20.12;83.79
9035;BME280;4552;43.422;24.592;2022-09-09T01:49:19;99797.44;;;20.08;85.80
9035;BME280;4552;43.422;24.592;2022-09-09T01:51:49;99781.00;;;20.02;84.99
9035;BME280;4552;43.422;24.592;2022-09-09T01:54:18;99791.94;;;20.11;84.89
9035;BME280;4552;43.422;24.592;2022-09-09T01:56:53;99785.19;;;20.06;85.52
9035;BME280;4552;43.422;24.592;2022-09-09T01:59:36;99795.88;;;20.21;84.24
9035;BME280;4552;43.422;24.592;2022-09-09T02:02:10;99797.28;;;19.96;85.83
9035;BME280;4552;43.422;24.592;2022-09-09T02:04:40;99799.22;;;19.92;85.95
9035;BME280;4552;43.422;24.592;2022-09-09T02:07:18;99796.13;;;19.84;86.48
9035;BME280;4552;43.422;24.592;2022-09-09T02:09:52;99799.34;;;19.74;86.80
9035;BME280;4552;43.422;24.592;2022-09-09T02:12:26;99797.41;;;19.60;88.24
9035;BME280;4552;43.422;24.592;2022-09-09T02:15:01;99802.91;;;19.57;88.29
9035;BME280;4552;43.422;24.592;2022-09-09T02:17:31;99799.06;;;19.46;88.24
9035;BME280;4552;43.422;24.592;2022-09-09T02:20:03;99801.63;;;19.47;89.71
9035;BME280;4552;43.422;24.592;2022-09-09T02:22:33;99812.72;;;19.55;89.05
9035;BME280;4552;43.422;24.592;2022-09-09T02:25:04;99798.22;;;19.45;89.45
9035;BME280;4552;43.422;24.592;2022-09-09T02:27:32;99795.31;;;19.50;88.39
9035;BME280;4552;43.422;24.592;2022-09-09T02:30:03;99806.19;;;19.45;89.35
9035;BME280;4552;43.422;24.592;2022-09-09T02:32:32;99799.34;;;19.23;90.44
9035;BME280;4552;43.422;24.592;2022-09-09T02:35:04;99798.03;;;19.14;91.65
9035;BME280;4552;43.422;24.592;2022-09-09T02:37:36;99803.03;;;19.20;90.88
9035;BME280;4552;43.422;24.592;2022-09-09T02:40:05;99791.22;;;19.27;89.51
9035;BME280;4552;43.422;24.592;2022-09-09T02:42:38;99811.25;;;19.33;89.05
9035;BME280;4552;43.422;24.592;2022-09-09T02:45:13;99813.28;;;19.28;89.79
9035;BME280;4552;43.422;24.592;2022-09-09T02:47:47;99798.16;;;19.30;88.88
9035;BME280;4552;43.422;24.592;2022-09-09T02:50:20;99792.53;;;19.36;88.42
9035;BME280;4552;43.422;24.592;2022-09-09T02:53:01;99801.19;;;19.39;88.41
9035;BME280;4552;43.422;24.592;2022-09-09T02:55:39;99806.31;;;19.25;89.61
9035;BME280;4552;43.422;24.592;2022-09-09T02:58:09;99799.75;;;19.15;89.69
9035;BME280;4552;43.422;24.592;2022-09-09T03:00:43;99799.28;;;19.24;89.57
9035;BME280;4552;43.422;24.592;2022-09-09T03:03:11;99790.63;;;19.21;89.76
9035;BME280;4552;43.422;24.592;2022-09-09T03:05:38;99795.53;;;19.11;90.48
9035;BME280;4552;43.422;24.592;2022-09-09T03:08:06;99789.13;;;19.15;89.53
9035;BME280;4552;43.422;24.592;2022-09-09T03:10:42;99776.56;;;19.02;89.80
9035;BME280;4552;43.422;24.592;2022-09-09T03:13:09;99785.56;;;19.16;89.87
9035;BME280;4552;43.422;24.592;2022-09-09T03:15:42;99784.13;;;19.09;90.69
9035;BME280;4552;43.422;24.592;2022-09-09T03:18:10;99799.75;;;19.15;91.07
9035;BME280;4552;43.422;24.592;2022-09-09T03:20:37;99800.34;;;19.03;90.85
9035;BME280;4552;43.422;24.592;2022-09-09T03:23:04;99793.88;;;18.91;91.39
9035;BME280;4552;43.422;24.592;2022-09-09T03:25:35;99801.28;;;18.85;92.25
9035;BME280;4552;43.422;24.592;2022-09-09T03:28:15;99797.94;;;18.98;92.20
9035;BME280;4552;43.422;24.592;2022-09-09T03:31:03;99796.78;;;19.04;90.93
9035;BME280;4552;43.422;24.592;2022-09-09T03:33:35;99804.13;;;18.99;90.68
9035;BME280;4552;43.422;24.592;2022-09-09T03:36:03;99793.97;;;18.90;90.20
9035;BME280;4552;43.422;24.592;2022-09-09T03:38:30;99790.81;;;18.82;91.55
9035;BME280;4552;43.422;24.592;2022-09-09T03:40:59;99810.34;;;18.81;92.17
9035;BME280;4552;43.422;24.592;2022-09-09T03:43:27;99814.16;;;18.92;90.91
9035;BME280;4552;43.422;24.592;2022-09-09T03:45:57;99799.72;;;18.81;91.81
9035;BME280;4552;43.422;24.592;2022-09-09T03:48:30;99820.97;;;18.98;90.15
9035;BME280;4552;43.422;24.592;2022-09-09T03:50:57;99814.09;;;18.94;89.54
9035;BME280;4552;43.422;24.592;2022-09-09T03:53:27;99810.53;;;18.95;90.39
9035;BME280;4552;43.422;24.592;2022-09-09T03:55:57;99817.72;;;19.10;90.27
9035;BME280;4552;43.422;24.592;2022-09-09T03:58:26;99815.19;;;19.24;87.93
9035;BME280;4552;43.422;24.592;2022-09-09T04:00:54;99827.00;;;19.19;88.43
9035;BME280;4552;43.422;24.592;2022-09-09T04:03:22;99825.13;;;19.21;87.78
9035;BME280;4552;43.422;24.592;2022-09-09T04:06:01;99801.09;;;19.24;87.17
9035;BME280;4552;43.422;24.592;2022-09-09T04:08:32;99811.00;;;19.20;87.96
9035;BME280;4552;43.422;24.592;2022-09-09T04:11:01;99814.63;;;19.36;86.59
9035;BME280;4552;43.422;24.592;2022-09-09T04:13:33;99810.31;;;19.34;86.10
9035;BME280;4552;43.422;24.592;2022-09-09T04:16:02;99809.91;;;19.41;85.98
9035;BME280;4552;43.422;24.592;2022-09-09T04:18:30;99811.25;;;19.50;85.86
9035;BME280;4552;43.422;24.592;2022-09-09T04:20:59;99808.38;;;19.54;86.52
9035;BME280;4552;43.422;24.592;2022-09-09T04:23:27;99813.69;;;19.54;87.33
9035;BME280;4552;43.422;24.592;2022-09-09T04:25:57;99820.09;;;19.83;86.41
9035;BME280;4552;43.422;24.592;2022-09-09T04:28:26;99792.00;;;19.79;86.13
9035;BME280;4552;43.422;24.592;2022-09-09T04:30:54;99811.22;;;19.99;85.06
9035;BME280;4552;43.422;24.592;2022-09-09T04:33:23;99813.88;;;20.32;84.42
9035;BME280;4552;43.422;24.592;2022-09-09T04:35:52;99806.28;;;20.09;85.46
9035;BME280;4552;43.422;24.592;2022-09-09T04:38:39;99815.00;;;20.28;85.55
9035;BME280;4552;43.422;24.592;2022-09-09T04:41:06;99810.97;;;20.36;83.97
9035;BME280;4552;43.422;24.592;2022-09-09T04:43:36;99830.97;;;20.75;82.31
9035;BME280;4552;43.422;24.592;2022-09-09T04:46:04;99813.03;;;20.78;82.03
9035;BME280;4552;43.422;24.592;2022-09-09T04:48:32;99822.28;;;21.02;80.49
9035;BME280;4552;43.422;24.592;2022-09-09T04:51:00;99828.19;;;21.37;78.48
9035;BME280;4552;43.422;24.592;2022-09-09T04:53:29;99822.00;;;21.52;75.72
9035;BME280;4552;43.422;24.592;2022-09-09T04:56:04;99825.69;;;21.79;73.42
9035;BME280;4552;43.422;24.592;2022-09-09T04:58:32;99838.84;;;21.66;73.88
9035;BME280;4552;43.422;24.592;2022-09-09T05:01:06;99835.22;;;21.53;74.24
9035;BME280;4552;43.422;24.592;2022-09-09T05:03:33;99842.34;;;22.39;71.83
9035;BME280;4552;43.422;24.592;2022-09-09T05:06:05;99848.47;;;22.81;68.20
9035;BME280;4552;43.422;24.592;2022-09-09T05:08:34;99853.47;;;23.53;66.17
9035;BME280;4552;43.422;24.592;2022-09-09T05:11:03;99861.78;;;24.13;64.44
9035;BME280;4552;43.422;24.592;2022-09-09T05:13:30;99861.41;;;24.67;62.69
9035;BME280;4552;43.422;24.592;2022-09-09T05:15:59;99856.16;;;24.66;62.13
9035;BME280;4552;43.422;24.592;2022-09-09T05:18:26;99859.22;;;23.99;64.09
9035;BME280;4552;43.422;24.592;2022-09-09T05:21:00;99846.09;;;23.81;65.88
9035;BME280;4552;43.422;24.592;2022-09-09T05:23:27;99838.88;;;23.96;65.28
9035;BME280;4552;43.422;24.592;2022-09-09T05:25:56;99840.97;;;23.78;66.91
9035;BME280;4552;43.422;24.592;2022-09-09T05:28:25;99834.09;;;23.49;67.59
9035;BME280;4552;43.422;24.592;2022-09-09T05:30:58;99834.63;;;23.42;67.38
9035;BME280;4552;43.422;24.592;2022-09-09T05:33:26;99842.47;;;23.95;66.26
9035;BME280;4552;43.422;24.592;2022-09-09T05:35:57;99826.56;;;23.81;65.50
9035;BME280;4552;43.422;24.592;2022-09-09T05:38:24;99842.50;;;24.20;65.04
9035;BME280;4552;43.422;24.592;2022-09-09T05:40:52;99841.66;;;24.20;63.89
9035;BME280;4552;43.422;24.592;2022-09-09T05:43:19;99832.69;;;24.57;61.32
9035;BME280;4552;43.422;24.592;2022-09-09T05:45:48;99823.34;;;24.62;61.11
9035;BME280;4552;43.422;24.592;2022-09-09T05:48:16;99832.81;;;24.68;60.78
9035;BME280;4552;43.422;24.592;2022-09-09T05:50:54;99853.25;;;24.69;59.38
9035;BME280;4552;43.422;24.592;2022-09-09T05:53:21;99842.94;;;24.88;59.47
9035;BME280;4552;43.422;24.592;2022-09-09T05:55:48;99844.50;;;24.90;60.02
9035;BME280;4552;43.422;24.592;2022-09-09T05:58:16;99843.25;;;25.07;59.80
9035;BME280;4552;43.422;24.592;2022-09-09T06:00:43;99843.25;;;24.83;59.24
9035;BME280;4552;43.422;24.592;2022-09-09T06:03:12;99828.66;;;24.87;59.20
9035;BME280;4552;43.422;24.592;2022-09-09T06:05:39;99838.13;;;25.04;58.43
9035;BME280;4552;43.422;24.592;2022-09-09T06:08:06;99834.47;;;25.28;58.00
9035;BME280;4552;43.422;24.592;2022-09-09T06:10:34;99827.63;;;25.37;58.18
9035;BME280;4552;43.422;24.592;2022-09-09T06:13:01;99838.78;;;25.66;56.02
9035;BME280;4552;43.422;24.592;2022-09-09T06:15:30;99829.59;;;25.46;55.75
9035;BME280;4552;43.422;24.592;2022-09-09T06:17:57;99838.69;;;25.89;54.70
9035;BME280;4552;43.422;24.592;2022-09-09T06:20:26;99844.31;;;25.75;53.73
9035;BME280;4552;43.422;24.592;2022-09-09T06:22:56;99850.09;;;25.58;55.87
9035;BME280;4552;43.422;24.592;2022-09-09T06:25:22;99856.03;;;25.51;56.27
9035;BME280;4552;43.422;24.592;2022-09-09T06:27:51;99845.84;;;25.67;55.38
9035;BME280;4552;43.422;24.592;2022-09-09T06:30:18;99847.47;;;25.80;53.95
9035;BME280;4552;43.422;24.592;2022-09-09T06:32:46;99853.31;;;25.74;55.03
9035;BME280;4552;43.422;24.592;2022-09-09T06:35:13;99866.91;;;25.60;54.87
9035;BME280;4552;43.422;24.592;2022-09-09T06:37:44;99857.44;;;25.67;54.91
9035;BME280;4552;43.422;24.592;2022-09-09T06:40:14;99856.53;;;25.90;54.27
9035;BME280;4552;43.422;24.592;2022-09-09T06:42:42;99859.25;;;26.01;53.22
9035;BME280;4552;43.422;24.592;2022-09-09T06:45:10;99864.09;;;25.96;53.86
9035;BME280;4552;43.422;24.592;2022-09-09T06:47:40;99864.31;;;25.93;54.93
9035;BME280;4552;43.422;24.592;2022-09-09T06:50:08;99863.41;;;26.27;53.39
9035;BME280;4552;43.422;24.592;2022-09-09T06:52:35;99864.16;;;26.40;50.14
9035;BME280;4552;43.422;24.592;2022-09-09T06:55:05;99862.59;;;26.38;46.95
9035;BME280;4552;43.422;24.592;2022-09-09T06:57:32;99866.34;;;26.46;47.50
9035;BME280;4552;43.422;24.592;2022-09-09T07:00:00;99873.66;;;26.55;46.47
9035;BME280;4552;43.422;24.592;2022-09-09T07:02:27;99864.38;;;26.59;46.21
9035;BME280;4552;43.422;24.592;2022-09-09T07:04:54;99875.28;;;26.69;46.10
9035;BME280;4552;43.422;24.592;2022-09-09T07:07:24;99871.69;;;27.01;45.90
9035;BME280;4552;43.422;24.592;2022-09-09T07:09:52;99861.41;;;27.06;45.94
9035;BME280;4552;43.422;24.592;2022-09-09T07:12:20;99864.06;;;27.17;44.92
9035;BME280;4552;43.422;24.592;2022-09-09T07:14:47;99860.91;;;27.55;45.25
9035;BME280;4552;43.422;24.592;2022-09-09T07:17:14;99868.19;;;27.85;44.90
9035;BME280;4552;43.422;24.592;2022-09-09T07:19:42;99865.94;;;28.31;43.61
9035;BME280;4552;43.422;24.592;2022-09-09T07:22:09;99853.56;;;28.19;42.50
9035;BME280;4552;43.422;24.592;2022-09-09T07:24:36;99860.47;;;28.42;43.54
9035;BME280;4552;43.422;24.592;2022-09-09T07:27:03;99867.19;;;27.97;41.10
9035;BME280;4552;43.422;24.592;2022-09-09T07:29:32;99868.16;;;27.96;42.26
9035;BME280;4552;43.422;24.592;2022-09-09T07:32:00;99876.97;;;28.28;42.30
9035;BME280;4552;43.422;24.592;2022-09-09T07:34:29;99864.25;;;28.30;41.25
9035;BME280;4552;43.422;24.592;2022-09-09T07:36:56;99875.28;;;28.06;41.68
9035;BME280;4552;43.422;24.592;2022-09-09T07:39:24;99870.31;;;28.02;42.22
9035;BME280;4552;43.422;24.592;2022-09-09T07:41:51;99865.59;;;28.15;41.04
9035;BME280;4552;43.422;24.592;2022-09-09T07:44:21;99869.81;;;28.38;41.91
9035;BME280;4552;43.422;24.592;2022-09-09T07:46:50;99867.78;;;28.51;41.81
9035;BME280;4552;43.422;24.592;2022-09-09T07:49:18;99875.13;;;28.49;40.32
9035;BME280;4552;43.422;24.592;2022-09-09T07:51:46;99875.34;;;28.66;40.18
9035;BME280;4552;43.422;24.592;2022-09-09T07:54:16;99871.38;;;29.10;40.49
9035;BME280;4552;43.422;24.592;2022-09-09T07:56:45;99879.19;;;29.13;40.43
9035;BME280;4552;43.422;24.592;2022-09-09T07:59:13;99881.66;;;28.86;40.96
9035;BME280;4552;43.422;24.592;2022-09-09T08:01:42;99881.47;;;28.78;41.47
9035;BME280;4552;43.422;24.592;2022-09-09T08:04:12;99877.28;;;28.95;41.56
9035;BME280;4552;43.422;24.592;2022-09-09T08:06:42;99879.84;;;29.64;40.59
9035;BME280;4552;43.422;24.592;2022-09-09T08:09:10;99880.78;;;29.35;41.69
9035;BME280;4552;43.422;24.592;2022-09-09T08:11:38;99880.06;;;29.23;41.05
9035;BME280;4552;43.422;24.592;2022-09-09T08:14:07;99864.88;;;29.13;41.29
9035;BME280;4552;43.422;24.592;2022-09-09T08:16:38;99873.38;;;29.18;41.73
9035;BME280;4552;43.422;24.592;2022-09-09T08:19:05;99860.69;;;28.99;42.38
9035;BME280;4552;43.422;24.592;2022-09-09T08:21:36;99868.56;;;29.21;42.23
9035;BME280;4552;43.422;24.592;2022-09-09T08:24:05;99853.22;;;29.12;42.53
9035;BME280;4552;43.422;24.592;2022-09-09T08:26:34;99859.47;;;29.13;42.11
9035;BME280;4552;43.422;24.592;2022-09-09T08:29:03;99866.13;;;29.18;41.44
9035;BME280;4552;43.422;24.592;2022-09-09T08:31:32;99851.53;;;29.11;41.16
9035;BME280;4552;43.422;24.592;2022-09-09T08:34:00;99849.53;;;29.23;41.07
9035;BME280;4552;43.422;24.592;2022-09-09T08:36:31;99851.53;;;29.11;40.75
9035;BME280;4552;43.422;24.592;2022-09-09T08:39:01;99837.63;;;29.25;41.19
9035;BME280;4552;43.422;24.592;2022-09-09T08:41:40;99850.69;;;29.77;40.46
9035;BME280;4552;43.422;24.592;2022-09-09T08:44:14;99850.13;;;29.74;40.40
9035;BME280;4552;43.422;24.592;2022-09-09T08:46:53;99853.84;;;29.63;40.03
9035;BME280;4552;43.422;24.592;2022-09-09T08:49:42;99849.13;;;29.46;41.00
9035;BME280;4552;43.422;24.592;2022-09-09T08:52:16;99858.25;;;29.64;41.68
9035;BME280;4552;43.422;24.592;2022-09-09T08:54:47;99856.94;;;29.40;40.34
9035;BME280;4552;43.422;24.592;2022-09-09T08:57:26;99848.69;;;29.98;40.96
9035;BME280;4552;43.422;24.592;2022-09-09T08:59:55;99857.66;;;30.36;40.23
9035;BME280;4552;43.422;24.592;2022-09-09T09:02:26;99851.16;;;30.28;39.92
9035;BME280;4552;43.422;24.592;2022-09-09T09:05:07;99856.88;;;30.06;40.35
9035;BME280;4552;43.422;24.592;2022-09-09T09:07:46;99839.84;;;29.96;39.12
9035;BME280;4552;43.422;24.592;2022-09-09T09:10:29;99848.25;;;29.93;40.05
9035;BME280;4552;43.422;24.592;2022-09-09T09:13:02;99835.69;;;30.21;39.47
9035;BME280;4552;43.422;24.592;2022-09-09T09:15:34;99847.00;;;30.34;39.75
9035;BME280;4552;43.422;24.592;2022-09-09T09:18:04;99827.16;;;30.53;39.37
9035;BME280;4552;43.422;24.592;2022-09-09T09:20:39;99845.78;;;30.28;39.10
9035;BME280;4552;43.422;24.592;2022-09-09T09:23:13;99842.91;;;30.67;37.97
9035;BME280;4552;43.422;24.592;2022-09-09T09:25:44;99836.06;;;30.36;38.90
9035;BME280;4552;43.422;24.592;2022-09-09T09:28:15;99835.16;;;30.45;38.84
9035;BME280;4552;43.422;24.592;2022-09-09T09:30:49;99833.47;;;30.44;39.30
9035;BME280;4552;43.422;24.592;2022-09-09T09:33:21;99830.78;;;30.44;38.85
9035;BME280;4552;43.422;24.592;2022-09-09T09:35:50;99818.16;;;30.35;39.85
9035;BME280;4552;43.422;24.592;2022-09-09T09:38:20;99829.25;;;30.32;39.55
9035;BME280;4552;43.422;24.592;2022-09-09T09:40:51;99827.09;;;30.72;38.72
9035;BME280;4552;43.422;24.592;2022-09-09T09:43:23;99823.97;;;30.67;38.04
9035;BME280;4552;43.422;24.592;2022-09-09T09:45:51;99821.41;;;30.75;39.28
9035;BME280;4552;43.422;24.592;2022-09-09T09:48:18;99806.88;;;30.76;39.05
9035;BME280;4552;43.422;24.592;2022-09-09T09:50:50;99827.91;;;30.82;38.57
9035;BME280;4552;43.422;24.592;2022-09-09T09:53:22;99833.91;;;30.76;39.13
9035;BME280;4552;43.422;24.592;2022-09-09T09:55:57;99828.59;;;30.84;39.13
9035;BME280;4552;43.422;24.592;2022-09-09T09:58:26;99832.34;;;31.00;38.93
9035;BME280;4552;43.422;24.592;2022-09-09T10:00:55;99836.34;;;30.96;38.90
9035;BME280;4552;43.422;24.592;2022-09-09T10:03:28;99837.94;;;30.89;39.57
9035;BME280;4552;43.422;24.592;2022-09-09T10:05:55;99827.91;;;30.82;39.32
9035;BME280;4552;43.422;24.592;2022-09-09T10:08:23;99820.25;;;30.68;38.90
9035;BME280;4552;43.422;24.592;2022-09-09T10:11:23;99812.84;;;30.70;39.16
9035;BME280;4552;43.422;24.592;2022-09-09T10:14:02;99823.97;;;30.94;39.26
9035;BME280;4552;43.422;24.592;2022-09-09T10:16:45;99838.16;;;31.23;38.64
9035;BME280;4552;43.422;24.592;2022-09-09T10:19:21;99833.00;;;31.29;38.62
9035;BME280;4552;43.422;24.592;2022-09-09T10:22:07;99824.41;;;31.34;38.11
9035;BME280;4552;43.422;24.592;2022-09-09T10:27:44;99815.84;;;31.38;37.02
9035;BME280;4552;43.422;24.592;2022-09-09T10:30:17;99829.03;;;31.24;37.91
9035;BME280;4552;43.422;24.592;2022-09-09T10:32:49;99820.28;;;31.12;37.19
9035;BME280;4552;43.422;24.592;2022-09-09T10:35:30;99812.97;;;31.40;37.61
9035;BME280;4552;43.422;24.592;2022-09-09T10:38:10;99804.66;;;32.02;36.40
9035;BME280;4552;43.422;24.592;2022-09-09T10:40:43;99818.50;;;31.73;36.82
9035;BME280;4552;43.422;24.592;2022-09-09T10:43:31;99821.38;;;31.90;36.06
9035;BME280;4552;43.422;24.592;2022-09-09T10:46:12;99829.16;;;31.75;36.67
9035;BME280;4552;43.422;24.592;2022-09-09T10:48:58;99818.84;;;31.53;36.61
9035;BME280;4552;43.422;24.592;2022-09-09T10:51:34;99814.94;;;31.73;36.50
9035;BME280;4552;43.422;24.592;2022-09-09T10:54:24;99825.25;;;31.69;35.04
9035;BME280;4552;43.422;24.592;2022-09-09T10:56:58;99821.53;;;31.70;35.38
9035;BME280;4552;43.422;24.592;2022-09-09T10:59:31;99807.91;;;31.62;35.54
9035;BME280;4552;43.422;24.592;2022-09-09T11:02:07;99802.28;;;31.99;36.15
9035;BME280;4552;43.422;24.592;2022-09-09T11:04:42;99824.25;;;31.88;35.39
9035;BME280;4552;43.422;24.592;2022-09-09T11:07:16;99823.97;;;31.56;35.76
9035;BME280;4552;43.422;24.592;2022-09-09T11:09:50;99805.00;;;31.56;35.95
9035;BME280;4552;43.422;24.592;2022-09-09T11:12:22;99817.78;;;31.71;35.48
9035;BME280;4552;43.422;24.592;2022-09-09T11:14:55;99826.06;;;31.70;35.89
9035;BME280;4552;43.422;24.592;2022-09-09T11:17:30;99826.00;;;31.79;36.17
9035;BME280;4552;43.422;24.592;2022-09-09T11:20:02;99818.69;;;31.98;36.26
9035;BME280;4552;43.422;24.592;2022-09-09T11:22:34;99818.88;;;31.78;35.71
9035;BME280;4552;43.422;24.592;2022-09-09T11:25:06;99813.41;;;31.70;36.88
9035;BME280;4552;43.422;24.592;2022-09-09T11:27:42;99808.69;;;31.55;35.88
9035;BME280;4552;43.422;24.592;2022-09-09T11:30:19;99821.75;;;31.77;36.33
9035;BME280;4552;43.422;24.592;2022-09-09T11:33:08;99800.41;;;31.56;36.70
9035;BME280;4552;43.422;24.592;2022-09-09T11:35:51;99804.69;;;31.41;36.75
9035;BME280;4552;43.422;24.592;2022-09-09T11:38:27;99820.72;;;31.78;36.87
9035;BME280;4552;43.422;24.592;2022-09-09T11:40:56;99816.34;;;31.59;36.68
9035;BME280;4552;43.422;24.592;2022-09-09T11:43:28;99805.00;;;31.38;36.49
9035;BME280;4552;43.422;24.592;2022-09-09T11:46:00;99802.53;;;31.10;38.23
9035;BME280;4552;43.422;24.592;2022-09-09T11:48:32;99796.25;;;31.27;37.73
9035;BME280;4552;43.422;24.592;2022-09-09T11:51:04;99786.09;;;30.94;38.33
9035;BME280;4552;43.422;24.592;2022-09-09T11:53:33;99792.38;;;31.12;38.71
9035;BME280;4552;43.422;24.592;2022-09-09T11:56:12;99791.91;;;30.99;39.23
9035;BME280;4552;43.422;24.592;2022-09-09T11:58:54;99808.16;;;31.16;38.59
9035;BME280;4552;43.422;24.592;2022-09-09T12:01:34;99800.50;;;30.94;39.62
9035;BME280;4552;43.422;24.592;2022-09-09T12:06:54;99802.78;;;31.34;38.97
9035;BME280;4552;43.422;24.592;2022-09-09T12:09:27;99805.09;;;31.29;39.07
9035;BME280;4552;43.422;24.592;2022-09-09T12:12:07;99803.25;;;30.85;40.03
9035;BME280;4552;43.422;24.592;2022-09-09T12:14:36;99798.41;;;31.06;40.40
9035;BME280;4552;43.422;24.592;2022-09-09T12:17:18;99794.84;;;31.23;39.51
9035;BME280;4552;43.422;24.592;2022-09-09T12:19:48;99793.16;;;31.22;40.05
9035;BME280;4552;43.422;24.592;2022-09-09T12:22:35;99757.28;;;31.20;39.27
9035;BME280;4552;43.422;24.592;2022-09-09T12:25:16;99766.72;;;31.16;38.20
9035;BME280;4552;43.422;24.592;2022-09-09T12:27:56;99764.94;;;31.24;39.06
9035;BME280;4552;43.422;24.592;2022-09-09T12:30:29;99774.63;;;31.27;39.29
9035;BME280;4552;43.422;24.592;2022-09-09T12:33:09;99763.78;;;31.27;40.50
9035;BME280;4552;43.422;24.592;2022-09-09T12:35:38;99757.91;;;31.14;41.11
9035;BME280;4552;43.422;24.592;2022-09-09T12:38:13;99745.22;;;30.97;41.01
9035;BME280;4552;43.422;24.592;2022-09-09T12:40:42;99752.19;;;30.82;41.46
9035;BME280;4552;43.422;24.592;2022-09-09T12:43:17;99742.16;;;30.65;41.48
9035;BME280;4552;43.422;24.592;2022-09-09T12:45:47;99738.75;;;30.45;41.43
9035;BME280;4552;43.422;24.592;2022-09-09T12:48:18;99754.59;;;30.58;41.13
9035;BME280;4552;43.422;24.592;2022-09-09T12:50:49;99749.03;;;30.59;41.79
9035;BME280;4552;43.422;24.592;2022-09-09T12:53:22;99747.50;;;30.57;41.92
9035;BME280;4552;43.422;24.592;2022-09-09T12:55:54;99742.00;;;30.49;42.72
9035;BME280;4552;43.422;24.592;2022-09-09T12:58:23;99743.59;;;30.42;42.59
9035;BME280;4552;43.422;24.592;2022-09-09T13:00:51;99752.97;;;30.65;41.91
9035;BME280;4552;43.422;24.592;2022-09-09T13:03:23;99759.69;;;30.61;41.85
9035;BME280;4552;43.422;24.592;2022-09-09T13:05:50;99745.94;;;30.54;41.53
9035;BME280;4552;43.422;24.592;2022-09-09T13:08:19;99744.59;;;30.41;41.91
9035;BME280;4552;43.422;24.592;2022-09-09T13:10:50;99756.19;;;30.23;42.60
9035;BME280;4552;43.422;24.592;2022-09-09T13:13:22;99753.19;;;30.26;42.29
9035;BME280;4552;43.422;24.592;2022-09-09T13:15:53;99755.66;;;30.20;42.87
9035;BME280;4552;43.422;24.592;2022-09-09T13:18:24;99755.56;;;30.39;42.99
9035;BME280;4552;43.422;24.592;2022-09-09T13:20:54;99749.44;;;30.64;41.99
9035;BME280;4552;43.422;24.592;2022-09-09T13:23:27;99736.78;;;30.38;42.01
9035;BME280;4552;43.422;24.592;2022-09-09T13:25:56;99748.19;;;30.32;42.85
9035;BME280;4552;43.422;24.592;2022-09-09T13:28:25;99753.19;;;30.26;42.34
9035;BME280;4552;43.422;24.592;2022-09-09T13:30:57;99757.91;;;30.24;42.54
9035;BME280;4552;43.422;24.592;2022-09-09T13:33:32;99743.50;;;29.97;42.61
9035;BME280;4552;43.422;24.592;2022-09-09T13:36:03;99743.00;;;29.74;43.38
9035;BME280;4552;43.422;24.592;2022-09-09T13:38:33;99739.91;;;29.69;43.81
9035;BME280;4552;43.422;24.592;2022-09-09T13:41:02;99742.69;;;29.77;44.06